sensor_id;sensor_type;location;lat;lon;timestamp;pressure;altitude;pressure_sealevel;temperature;humidity
11830;BME280;5972;42.134;24.718;2022-07-25T00:01:08;99397.38;;;29.42;69.24
11830;BME280;5972;42.134;24.718;2022-07-25T00:03:35;99411.03;;;29.30;69.65
11830;BME280;5972;42.134;24.718;2022-07-25T00:06:02;99397.69;;;29.11;73.26
11830;BME280;5972;42.134;24.718;2022-07-25T00:08:29;99416.91;;;29.09;88.97
11830;BME280;5972;42.134;24.718;2022-07-25T00:10:56;99418.59;;;28.64;94.17
11830;BME280;5972;42.134;24.718;2022-07-25T00:13:23;99414.84;;;28.25;89.80
11830;BME280;5972;42.134;24.718;2022-07-25T00:15:50;99417.59;;;27.89;100.00
11830;BME280;5972;42.134;24.718;2022-07-25T00:18:18;99427.94;;;27.61;100.00
11830;BME280;5972;42.134;24.718;2022-07-25T00:20:45;99428.03;;;27.48;100.00
11830;BME280;5972;42.134;24.718;2022-07-25T00:23:12;99423.38;;;27.27;100.00
11830;BME280;5972;42.134;24.718;2022-07-25T00:25:39;99436.03;;;27.19;96.56
11830;BME280;5972;42.134;24.718;2022-07-25T00:28:06;99441.06;;;27.02;94.61
11830;BME280;5972;42.134;24.718;2022-07-25T00:30:33;99453.97;;;26.96;93.60
11830;BME280;5972;42.134;24.718;2022-07-25T00:33:00;99456.00;;;26.96;86.90
11830;BME280;5972;42.134;24.718;2022-07-25T00:35:28;99465.88;;;26.97;88.31
11830;BME280;5972;42.134;24.718;2022-07-25T00:37:55;99441.59;;;26.88;89.46
11830;BME280;5972;42.134;24.718;2022-07-25T00:40:22;99450.81;;;26.85;97.79
11830;BME280;5972;42.134;24.718;2022-07-25T00:42:49;99453.22;;;26.74;100.00
11830;BME280;5972;42.134;24.718;2022-07-25T00:45:16;99435.16;;;26.69;100.00
11830;BME280;5972;42.134;24.718;2022-07-25T00:47:42;99450.75;;;26.76;100.00
11830;BME280;5972;42.134;24.718;2022-07-25T00:50:09;99439.22;;;26.77;99.27
11830;BME280;5972;42.134;24.718;2022-07-25T00:52:38;99452.63;;;26.79;100.00
11830;BME280;5972;42.134;24.718;2022-07-25T00:55:06;99443.72;;;26.84;96.63
11830;BME280;5972;42.134;24.718;2022-07-25T00:57:33;99441.16;;;26.89;95.91
11830;BME280;5972;42.134;24.718;2022-07-25T01:00:00;99445.78;;;26.93;97.12
11830;BME280;5972;42.134;24.718;2022-07-25T01:02:26;99433.88;;;26.92;95.64
11830;BME280;5972;42.134;24.718;2022-07-25T01:04:53;99436.38;;;26.90;94.39
11830;BME280;5972;42.134;24.718;2022-07-25T01:07:22;99431.59;;;26.91;91.79
11830;BME280;5972;42.134;24.718;2022-07-25T01:09:50;99447.22;;;26.97;89.18
11830;BME280;5972;42.134;24.718;2022-07-25T01:12:17;99430.22;;;26.95;89.10
11830;BME280;5972;42.134;24.718;2022-07-25T01:14:44;99429.63;;;27.00;81.88
11830;BME280;5972;42.134;24.718;2022-07-25T01:17:11;99433.16;;;27.01;82.17
11830;BME280;5972;42.134;24.718;2022-07-25T01:19:38;99444.00;;;27.08;82.28
11830;BME280;5972;42.134;24.718;2022-07-25T01:22:06;99436.13;;;27.15;80.76
11830;BME280;5972;42.134;24.718;2022-07-25T01:24:33;99431.81;;;27.14;79.96
11830;BME280;5972;42.134;24.718;2022-07-25T01:27:00;99431.25;;;27.19;82.58
11830;BME280;5972;42.134;24.718;2022-07-25T01:29:27;99433.09;;;27.31;85.08
11830;BME280;5972;42.134;24.718;2022-07-25T01:31:54;99429.13;;;27.42;78.89
11830;BME280;5972;42.134;24.718;2022-07-25T01:34:21;99420.78;;;27.42;75.12
11830;BME280;5972;42.134;24.718;2022-07-25T01:36:48;99398.09;;;27.43;74.32
11830;BME280;5972;42.134;24.718;2022-07-25T01:39:16;99405.34;;;27.50;73.73
11830;BME280;5972;42.134;24.718;2022-07-25T01:41:43;99387.31;;;27.54;75.50
11830;BME280;5972;42.134;24.718;2022-07-25T01:44:10;99396.28;;;27.58;77.47
11830;BME280;5972;42.134;24.718;2022-07-25T01:46:37;99405.09;;;27.66;79.43
11830;BME280;5972;42.134;24.718;2022-07-25T01:49:04;99393.50;;;27.67;80.29
11830;BME280;5972;42.134;24.718;2022-07-25T01:51:31;99397.34;;;27.70;80.76
11830;BME280;5972;42.134;24.718;2022-07-25T01:53:58;99388.44;;;27.75;80.63
11830;BME280;5972;42.134;24.718;2022-07-25T01:56:26;99370.34;;;27.70;78.98
11830;BME280;5972;42.134;24.718;2022-07-25T01:58:53;99382.38;;;27.77;78.22
11830;BME280;5972;42.134;24.718;2022-07-25T02:01:20;99370.19;;;27.74;77.58
11830;BME280;5972;42.134;24.718;2022-07-25T02:03:47;99364.00;;;27.79;77.09
11830;BME280;5972;42.134;24.718;2022-07-25T02:06:14;99343.31;;;27.80;76.81
11830;BME280;5972;42.134;24.718;2022-07-25T02:08:41;99346.88;;;27.81;75.92
11830;BME280;5972;42.134;24.718;2022-07-25T02:11:08;99337.44;;;27.78;78.09
11830;BME280;5972;42.134;24.718;2022-07-25T02:13:36;99335.88;;;27.77;77.98
11830;BME280;5972;42.134;24.718;2022-07-25T02:16:03;99336.34;;;27.76;78.06
11830;BME280;5972;42.134;24.718;2022-07-25T02:18:30;99334.81;;;27.75;78.30
11830;BME280;5972;42.134;24.718;2022-07-25T02:20:57;99330.63;;;27.70;79.18
11830;BME280;5972;42.134;24.718;2022-07-25T02:23:23;99333.59;;;27.66;78.46
11830;BME280;5972;42.134;24.718;2022-07-25T02:25:50;99320.63;;;27.63;79.11
11830;BME280;5972;42.134;24.718;2022-07-25T02:28:17;99325.56;;;27.59;78.53
11830;BME280;5972;42.134;24.718;2022-07-25T02:30:45;99308.59;;;27.57;77.72
11830;BME280;5972;42.134;24.718;2022-07-25T02:33:12;99271.34;;;27.37;77.86
11830;BME280;5972;42.134;24.718;2022-07-25T02:35:39;99302.25;;;27.57;77.02
11830;BME280;5972;42.134;24.718;2022-07-25T02:38:06;99312.09;;;27.49;78.20
11830;BME280;5972;42.134;24.718;2022-07-25T02:40:33;99301.75;;;27.49;77.46
11830;BME280;5972;42.134;24.718;2022-07-25T02:43:00;99303.16;;;27.45;77.52
11830;BME280;5972;42.134;24.718;2022-07-25T02:45:27;99289.56;;;27.38;76.88
11830;BME280;5972;42.134;24.718;2022-07-25T02:47:55;99318.94;;;27.57;76.91
11830;BME280;5972;42.134;24.718;2022-07-25T02:50:22;99315.69;;;27.58;77.92
11830;BME280;5972;42.134;24.718;2022-07-25T02:52:49;99303.91;;;27.45;77.35
11830;BME280;5972;42.134;24.718;2022-07-25T02:55:16;99318.94;;;27.57;77.49
11830;BME280;5972;42.134;24.718;2022-07-25T02:57:42;99312.75;;;27.62;76.62
11830;BME280;5972;42.134;24.718;2022-07-25T03:00:11;99325.41;;;27.63;78.79
11830;BME280;5972;42.134;24.718;2022-07-25T03:02:38;99319.38;;;27.74;77.85
11830;BME280;5972;42.134;24.718;2022-07-25T03:05:08;99323.72;;;27.75;77.40
11830;BME280;5972;42.134;24.718;2022-07-25T03:07:35;99335.75;;;27.81;76.98
11830;BME280;5972;42.134;24.718;2022-07-25T03:10:03;99338.81;;;27.83;76.27
11830;BME280;5972;42.134;24.718;2022-07-25T03:12:30;99340.81;;;27.82;76.09
11830;BME280;5972;42.134;24.718;2022-07-25T03:14:57;99330.97;;;27.72;76.29
11830;BME280;5972;42.134;24.718;2022-07-25T03:17:24;99345.78;;;27.78;75.60
11830;BME280;5972;42.134;24.718;2022-07-25T03:19:51;99344.09;;;27.81;74.69
11830;BME280;5972;42.134;24.718;2022-07-25T03:22:20;99343.31;;;27.80;73.49
11830;BME280;5972;42.134;24.718;2022-07-25T03:24:47;99339.91;;;27.76;72.63
11830;BME280;5972;42.134;24.718;2022-07-25T03:27:14;99336.84;;;27.74;70.85
11830;BME280;5972;42.134;24.718;2022-07-25T03:29:41;99345.78;;;27.78;70.68
11830;BME280;5972;42.134;24.718;2022-07-25T03:32:08;99345.31;;;27.80;69.83
11830;BME280;5972;42.134;24.718;2022-07-25T03:34:35;99360.28;;;27.82;70.19
11830;BME280;5972;42.134;24.718;2022-07-25T03:37:03;99348.72;;;27.65;69.96
11830;BME280;5972;42.134;24.718;2022-07-25T03:39:32;99358.44;;;27.70;70.03
11830;BME280;5972;42.134;24.718;2022-07-25T03:41:59;99368.19;;;27.65;71.46
11830;BME280;5972;42.134;24.718;2022-07-25T03:44:25;99366.03;;;27.51;72.18
11830;BME280;5972;42.134;24.718;2022-07-25T03:46:52;99375.28;;;27.57;72.87
11830;BME280;5972;42.134;24.718;2022-07-25T03:49:19;99375.91;;;27.52;73.27
11830;BME280;5972;42.134;24.718;2022-07-25T03:51:46;99368.75;;;27.42;75.72
11830;BME280;5972;42.134;24.718;2022-07-25T03:54:13;99380.47;;;27.37;76.37
11830;BME280;5972;42.134;24.718;2022-07-25T03:56:44;99375.41;;;27.45;75.38
11830;BME280;5972;42.134;24.718;2022-07-25T03:59:13;99376.00;;;27.30;77.31
11830;BME280;5972;42.134;24.718;2022-07-25T04:01:41;99379.25;;;27.29;77.27
11830;BME280;5972;42.134;24.718;2022-07-25T04:04:08;99378.19;;;27.36;76.51
11830;BME280;5972;42.134;24.718;2022-07-25T04:06:36;99375.41;;;27.36;76.49
11830;BME280;5972;42.134;24.718;2022-07-25T04:09:03;99365.03;;;27.27;76.49
11830;BME280;5972;42.134;24.718;2022-07-25T04:11:30;99373.41;;;27.45;75.69
11830;BME280;5972;42.134;24.718;2022-07-25T04:13:58;99377.91;;;27.52;76.22
11830;BME280;5972;42.134;24.718;2022-07-25T04:16:25;99376.34;;;27.60;75.13
11830;BME280;5972;42.134;24.718;2022-07-25T04:18:52;99372.97;;;27.65;74.90
11830;BME280;5972;42.134;24.718;2022-07-25T04:21:18;99367.41;;;27.65;74.54
11830;BME280;5972;42.134;24.718;2022-07-25T04:23:46;99370.03;;;27.78;73.14
11830;BME280;5972;42.134;24.718;2022-07-25T04:26:13;99385.31;;;27.91;73.26
11830;BME280;5972;42.134;24.718;2022-07-25T04:28:39;99380.06;;;28.02;72.44
11830;BME280;5972;42.134;24.718;2022-07-25T04:31:08;99363.53;;;28.08;72.60
11830;BME280;5972;42.134;24.718;2022-07-25T04:33:35;99372.78;;;28.23;71.35
11830;BME280;5972;42.134;24.718;2022-07-25T04:36:03;99381.41;;;28.34;71.24
11830;BME280;5972;42.134;24.718;2022-07-25T04:38:30;99384.03;;;28.38;71.00
11830;BME280;5972;42.134;24.718;2022-07-25T04:40:57;99375.53;;;28.41;70.23
11830;BME280;5972;42.134;24.718;2022-07-25T04:43:24;99378.59;;;28.52;70.73
11830;BME280;5972;42.134;24.718;2022-07-25T04:45:51;99368.34;;;28.59;69.69
11830;BME280;5972;42.134;24.718;2022-07-25T04:48:19;99362.56;;;28.71;68.00
11830;BME280;5972;42.134;24.718;2022-07-25T04:50:46;99386.41;;;29.05;66.14
11830;BME280;5972;42.134;24.718;2022-07-25T04:53:13;99389.03;;;29.09;66.10
11830;BME280;5972;42.134;24.718;2022-07-25T04:55:40;99395.22;;;29.04;66.51
11830;BME280;5972;42.134;24.718;2022-07-25T04:58:07;99390.50;;;28.95;67.22
11830;BME280;5972;42.134;24.718;2022-07-25T05:00:34;99396.66;;;28.99;66.79
11830;BME280;5972;42.134;24.718;2022-07-25T05:03:00;99393.09;;;28.99;66.84
11830;BME280;5972;42.134;24.718;2022-07-25T05:05:29;99398.97;;;29.01;67.28
11830;BME280;5972;42.134;24.718;2022-07-25T05:07:57;99394.81;;;28.96;68.33
11830;BME280;5972;42.134;24.718;2022-07-25T05:10:25;99379.69;;;28.88;68.75
11830;BME280;5972;42.134;24.718;2022-07-25T05:12:52;99398.31;;;29.06;68.52
11830;BME280;5972;42.134;24.718;2022-07-25T05:15:20;99384.84;;;29.04;68.35
11830;BME280;5972;42.134;24.718;2022-07-25T05:17:46;99397.84;;;29.07;69.04
11830;BME280;5972;42.134;24.718;2022-07-25T05:20:13;99396.25;;;29.15;68.47
11830;BME280;5972;42.134;24.718;2022-07-25T05:22:42;99403.34;;;29.25;68.22
11830;BME280;5972;42.134;24.718;2022-07-25T05:25:10;99392.34;;;29.22;68.11
11830;BME280;5972;42.134;24.718;2022-07-25T05:27:37;99404.38;;;29.28;68.39
11830;BME280;5972;42.134;24.718;2022-07-25T05:30:06;99398.03;;;29.37;68.48
11830;BME280;5972;42.134;24.718;2022-07-25T05:32:33;99384.56;;;29.35;67.30
11830;BME280;5972;42.134;24.718;2022-07-25T05:35:00;99397.09;;;29.54;67.41
11830;BME280;5972;42.134;24.718;2022-07-25T05:37:27;99402.88;;;29.51;67.36
11830;BME280;5972;42.134;24.718;2022-07-25T05:39:56;99400.00;;;29.60;66.92
11830;BME280;5972;42.134;24.718;2022-07-25T05:42:22;99399.47;;;29.70;66.46
11830;BME280;5972;42.134;24.718;2022-07-25T05:44:49;99398.28;;;29.86;66.21
11830;BME280;5972;42.134;24.718;2022-07-25T05:47:16;99396.59;;;30.03;64.71
11830;BME280;5972;42.134;24.718;2022-07-25T05:49:43;99396.19;;;30.10;64.76
11830;BME280;5972;42.134;24.718;2022-07-25T05:52:10;99390.44;;;30.14;63.61
11830;BME280;5972;42.134;24.718;2022-07-25T05:54:37;99405.56;;;30.37;62.66
11830;BME280;5972;42.134;24.718;2022-07-25T05:57:05;99400.94;;;30.48;62.41
11830;BME280;5972;42.134;24.718;2022-07-25T05:59:32;99403.75;;;30.63;60.29
11830;BME280;5972;42.134;24.718;2022-07-25T06:01:59;99393.31;;;30.78;60.04
11830;BME280;5972;42.134;24.718;2022-07-25T06:04:26;99393.84;;;30.97;59.69
11830;BME280;5972;42.134;24.718;2022-07-25T06:06:53;99400.59;;;31.05;58.94
11830;BME280;5972;42.134;24.718;2022-07-25T06:09:21;99400.81;;;31.22;57.00
11830;BME280;5972;42.134;24.718;2022-07-25T06:11:48;99399.25;;;31.35;56.24
11830;BME280;5972;42.134;24.718;2022-07-25T06:14:16;99393.53;;;31.65;55.19
11830;BME280;5972;42.134;24.718;2022-07-25T06:16:43;99398.69;;;31.92;54.78
11830;BME280;5972;42.134;24.718;2022-07-25T06:19:10;99394.16;;;32.00;53.04
11830;BME280;5972;42.134;24.718;2022-07-25T06:21:37;99387.03;;;32.19;52.92
11830;BME280;5972;42.134;24.718;2022-07-25T06:24:04;99377.50;;;32.37;51.31
11830;BME280;5972;42.134;24.718;2022-07-25T06:26:31;99392.09;;;32.47;50.08
11830;BME280;5972;42.134;24.718;2022-07-25T06:28:58;99390.94;;;32.59;49.78
11830;BME280;5972;42.134;24.718;2022-07-25T06:31:26;99387.22;;;32.73;49.77
11830;BME280;5972;42.134;24.718;2022-07-25T06:33:53;99378.84;;;32.79;49.33
11830;BME280;5972;42.134;24.718;2022-07-25T06:36:19;99396.34;;;33.05;47.57
11830;BME280;5972;42.134;24.718;2022-07-25T06:38:46;99396.47;;;33.22;47.67
11830;BME280;5972;42.134;24.718;2022-07-25T06:41:14;99391.44;;;33.31;46.58
11830;BME280;5972;42.134;24.718;2022-07-25T06:43:41;99386.88;;;33.39;46.05
11830;BME280;5972;42.134;24.718;2022-07-25T06:46:08;99399.69;;;33.52;45.60
11830;BME280;5972;42.134;24.718;2022-07-25T06:48:36;99391.75;;;33.45;45.36
11830;BME280;5972;42.134;24.718;2022-07-25T06:51:04;99389.75;;;33.62;45.71
11830;BME280;5972;42.134;24.718;2022-07-25T06:53:31;99387.78;;;33.73;45.68
11830;BME280;5972;42.134;24.718;2022-07-25T06:55:58;99377.13;;;33.89;44.51
11830;BME280;5972;42.134;24.718;2022-07-25T06:58:25;99383.78;;;34.02;44.35
11830;BME280;5972;42.134;24.718;2022-07-25T07:00:52;99391.47;;;34.18;44.03
11830;BME280;5972;42.134;24.718;2022-07-25T07:03:18;99380.72;;;34.06;43.14
11830;BME280;5972;42.134;24.718;2022-07-25T07:05:47;99387.63;;;34.10;43.03
11830;BME280;5972;42.134;24.718;2022-07-25T07:08:14;99400.22;;;34.43;43.02
11830;BME280;5972;42.134;24.718;2022-07-25T07:10:40;99380.53;;;34.37;42.22
11830;BME280;5972;42.134;24.718;2022-07-25T07:13:09;99391.50;;;34.41;41.77
11830;BME280;5972;42.134;24.718;2022-07-25T07:15:37;99391.78;;;34.43;41.33
11830;BME280;5972;42.134;24.718;2022-07-25T07:18:04;99389.72;;;34.66;40.92
11830;BME280;5972;42.134;24.718;2022-07-25T07:20:31;99385.91;;;34.57;41.55
11830;BME280;5972;42.134;24.718;2022-07-25T07:23:00;99393.84;;;34.70;40.85
11830;BME280;5972;42.134;24.718;2022-07-25T07:25:27;99393.56;;;34.74;40.75
11830;BME280;5972;42.134;24.718;2022-07-25T07:27:55;99376.72;;;34.74;40.79
11830;BME280;5972;42.134;24.718;2022-07-25T07:30:22;99390.50;;;34.94;40.75
11830;BME280;5972;42.134;24.718;2022-07-25T07:32:49;99391.50;;;34.85;40.08
11830;BME280;5972;42.134;24.718;2022-07-25T07:35:16;99380.50;;;34.98;40.56
11830;BME280;5972;42.134;24.718;2022-07-25T07:37:44;99383.81;;;35.02;40.37
11830;BME280;5972;42.134;24.718;2022-07-25T07:40:13;99394.78;;;35.00;39.69
11830;BME280;5972;42.134;24.718;2022-07-25T07:42:41;99382.28;;;35.01;40.02
11830;BME280;5972;42.134;24.718;2022-07-25T07:45:13;99380.19;;;35.13;39.48
11830;BME280;5972;42.134;24.718;2022-07-25T07:47:41;99389.91;;;35.12;39.29
11830;BME280;5972;42.134;24.718;2022-07-25T07:50:09;99380.19;;;35.13;38.72
11830;BME280;5972;42.134;24.718;2022-07-25T07:52:36;99379.69;;;35.26;38.99
11830;BME280;5972;42.134;24.718;2022-07-25T07:55:03;99382.69;;;35.39;37.97
11830;BME280;5972;42.134;24.718;2022-07-25T07:57:49;99384.97;;;35.46;37.21
11830;BME280;5972;42.134;24.718;2022-07-25T08:00:16;99372.97;;;35.40;36.79
11830;BME280;5972;42.134;24.718;2022-07-25T08:02:45;99385.13;;;35.76;36.84
11830;BME280;5972;42.134;24.718;2022-07-25T08:05:12;99364.84;;;35.89;35.88
11830;BME280;5972;42.134;24.718;2022-07-25T08:07:39;99386.16;;;36.14;35.42
11830;BME280;5972;42.134;24.718;2022-07-25T08:10:07;99380.81;;;36.16;35.04
11830;BME280;5972;42.134;24.718;2022-07-25T08:12:38;99377.44;;;36.12;34.99
11830;BME280;5972;42.134;24.718;2022-07-25T08:15:08;99366.91;;;36.23;34.60
11830;BME280;5972;42.134;24.718;2022-07-25T08:17:35;99375.91;;;36.22;34.96
11830;BME280;5972;42.134;24.718;2022-07-25T08:20:03;99381.06;;;36.48;34.50
11830;BME280;5972;42.134;24.718;2022-07-25T08:22:36;99376.84;;;36.65;34.14
11830;BME280;5972;42.134;24.718;2022-07-25T08:25:04;99366.34;;;36.60;33.50
11830;BME280;5972;42.134;24.718;2022-07-25T08:27:31;99368.97;;;36.53;34.04
11830;BME280;5972;42.134;24.718;2022-07-25T08:29:58;99369.03;;;36.47;34.61
11830;BME280;5972;42.134;24.718;2022-07-25T08:32:27;99374.41;;;36.45;34.78
11830;BME280;5972;42.134;24.718;2022-07-25T08:34:54;99368.25;;;36.47;34.66
11830;BME280;5972;42.134;24.718;2022-07-25T08:37:21;99381.16;;;36.37;34.44
11830;BME280;5972;42.134;24.718;2022-07-25T08:39:49;99372.84;;;36.50;33.73
11830;BME280;5972;42.134;24.718;2022-07-25T08:42:16;99374.84;;;36.55;33.42
11830;BME280;5972;42.134;24.718;2022-07-25T08:44:48;99368.56;;;36.43;33.44
11830;BME280;5972;42.134;24.718;2022-07-25T08:47:15;99371.22;;;36.60;33.66
11830;BME280;5972;42.134;24.718;2022-07-25T08:49:44;99363.22;;;36.70;33.15
11830;BME280;5972;42.134;24.718;2022-07-25T08:52:12;99360.34;;;36.75;33.04
11830;BME280;5972;42.134;24.718;2022-07-25T08:54:39;99366.50;;;36.74;33.16
11830;BME280;5972;42.134;24.718;2022-07-25T08:57:06;99373.84;;;36.52;33.07
11830;BME280;5972;42.134;24.718;2022-07-25T08:59:33;99368.16;;;36.58;33.53
11830;BME280;5972;42.134;24.718;2022-07-25T09:02:00;99367.81;;;36.73;33.29
11830;BME280;5972;42.134;24.718;2022-07-25T09:04:32;99362.28;;;36.86;32.29
11830;BME280;5972;42.134;24.718;2022-07-25T09:07:01;99360.47;;;36.88;31.88
11830;BME280;5972;42.134;24.718;2022-07-25T09:09:30;99357.59;;;36.94;31.57
11830;BME280;5972;42.134;24.718;2022-07-25T09:11:57;99349.13;;;36.94;31.91
11830;BME280;5972;42.134;24.718;2022-07-25T09:14:24;99353.06;;;37.10;31.87
11830;BME280;5972;42.134;24.718;2022-07-25T09:16:51;99345.53;;;37.18;31.84
11830;BME280;5972;42.134;24.718;2022-07-25T09:19:20;99350.06;;;37.26;31.95
11830;BME280;5972;42.134;24.718;2022-07-25T09:21:57;99352.28;;;37.33;30.99
11830;BME280;5972;42.134;24.718;2022-07-25T09:24:26;99341.75;;;37.34;31.00
11830;BME280;5972;42.134;24.718;2022-07-25T09:26:55;99344.28;;;37.37;30.62
11830;BME280;5972;42.134;24.718;2022-07-25T09:29:24;99348.84;;;37.40;30.68
11830;BME280;5972;42.134;24.718;2022-07-25T09:31:52;99344.50;;;37.39;30.48
11830;BME280;5972;42.134;24.718;2022-07-25T09:34:31;99350.69;;;37.57;29.66
11830;BME280;5972;42.134;24.718;2022-07-25T09:36:59;99340.34;;;37.65;29.67
11830;BME280;5972;42.134;24.718;2022-07-25T09:39:48;99337.25;;;37.81;29.82
11830;BME280;5972;42.134;24.718;2022-07-25T09:42:18;99334.13;;;38.04;29.65
11830;BME280;5972;42.134;24.718;2022-07-25T09:45:00;99333.13;;;38.01;29.53
11830;BME280;5972;42.134;24.718;2022-07-25T09:47:28;99329.50;;;38.19;28.77
11830;BME280;5972;42.134;24.718;2022-07-25T09:49:56;99335.31;;;38.40;29.02
11830;BME280;5972;42.134;24.718;2022-07-25T09:52:23;99318.63;;;38.23;28.86
11830;BME280;5972;42.134;24.718;2022-07-25T09:54:51;99333.94;;;38.15;28.55
11830;BME280;5972;42.134;24.718;2022-07-25T09:57:19;99330.06;;;37.99;29.23
11830;BME280;5972;42.134;24.718;2022-07-25T09:59:46;99326.97;;;37.65;29.71
11830;BME280;5972;42.134;24.718;2022-07-25T10:02:20;99331.81;;;37.46;30.01
11830;BME280;5972;42.134;24.718;2022-07-25T10:04:58;99324.19;;;37.22;29.80
11830;BME280;5972;42.134;24.718;2022-07-25T10:07:28;99324.97;;;36.98;30.33
11830;BME280;5972;42.134;24.718;2022-07-25T10:09:58;99317.25;;;36.50;30.38
11830;BME280;5972;42.134;24.718;2022-07-25T10:12:25;99318.59;;;36.08;31.23
11830;BME280;5972;42.134;24.718;2022-07-25T10:15:04;99320.19;;;36.04;32.12
11830;BME280;5972;42.134;24.718;2022-07-25T10:17:32;99314.59;;;35.98;32.77
11830;BME280;5972;42.134;24.718;2022-07-25T10:19:59;99308.63;;;36.07;32.14
11830;BME280;5972;42.134;24.718;2022-07-25T10:22:39;99309.63;;;36.10;31.39
11830;BME280;5972;42.134;24.718;2022-07-25T10:25:10;99300.94;;;36.08;32.36
11830;BME280;5972;42.134;24.718;2022-07-25T10:27:42;99295.66;;;36.29;31.61
11830;BME280;5972;42.134;24.718;2022-07-25T10:30:23;99283.09;;;36.30;31.55
11830;BME280;5972;42.134;24.718;2022-07-25T10:32:54;99291.66;;;36.18;31.23
11830;BME280;5972;42.134;24.718;2022-07-25T10:35:22;99288.47;;;36.33;31.17
11830;BME280;5972;42.134;24.718;2022-07-25T10:37:51;99267.63;;;36.42;31.04
11830;BME280;5972;42.134;24.718;2022-07-25T10:40:30;99281.66;;;36.47;31.03
11830;BME280;5972;42.134;24.718;2022-07-25T10:43:05;99280.63;;;36.75;30.74
11830;BME280;5972;42.134;24.718;2022-07-25T10:45:36;99273.81;;;36.89;30.48
11830;BME280;5972;42.134;24.718;2022-07-25T10:48:09;99272.28;;;36.88;31.20
11830;BME280;5972;42.134;24.718;2022-07-25T10:50:48;99266.91;;;36.84;30.91
11830;BME280;5972;42.134;24.718;2022-07-25T10:53:26;99265.25;;;36.46;31.00
11830;BME280;5972;42.134;24.718;2022-07-25T10:56:02;99267.88;;;36.44;32.07
11830;BME280;5972;42.134;24.718;2022-07-25T10:58:48;99250.19;;;36.43;31.24
11830;BME280;5972;42.134;24.718;2022-07-25T11:01:20;99259.75;;;36.59;30.93
11830;BME280;5972;42.134;24.718;2022-07-25T11:03:47;99264.41;;;36.81;31.55
11830;BME280;5972;42.134;24.718;2022-07-25T11:06:15;99263.00;;;36.69;31.20
11830;BME280;5972;42.134;24.718;2022-07-25T11:08:43;99237.63;;;36.14;31.47
11830;BME280;5972;42.134;24.718;2022-07-25T11:11:11;99253.53;;;36.12;32.22
11830;BME280;5972;42.134;24.718;2022-07-25T11:13:39;99255.56;;;35.81;32.26
11830;BME280;5972;42.134;24.718;2022-07-25T11:16:08;99249.88;;;35.52;33.45
11830;BME280;5972;42.134;24.718;2022-07-25T11:18:36;99249.47;;;35.36;33.43
11830;BME280;5972;42.134;24.718;2022-07-25T11:21:05;99244.81;;;35.39;34.02
11830;BME280;5972;42.134;24.718;2022-07-25T11:23:33;99237.69;;;35.38;32.86
11830;BME280;5972;42.134;24.718;2022-07-25T11:26:08;99236.56;;;35.52;32.68
11830;BME280;5972;42.134;24.718;2022-07-25T11:28:38;99240.97;;;35.42;32.67
11830;BME280;5972;42.134;24.718;2022-07-25T11:31:05;99224.75;;;35.59;32.80
11830;BME280;5972;42.134;24.718;2022-07-25T11:33:32;99222.09;;;35.72;32.79
11830;BME280;5972;42.134;24.718;2022-07-25T11:36:00;99217.91;;;35.84;32.57
11830;BME280;5972;42.134;24.718;2022-07-25T11:38:27;99211.72;;;35.92;31.89
11830;BME280;5972;42.134;24.718;2022-07-25T11:40:54;99208.94;;;35.86;32.62
11830;BME280;5972;42.134;24.718;2022-07-25T11:43:22;99204.81;;;35.93;32.33
11830;BME280;5972;42.134;24.718;2022-07-25T11:45:59;99204.56;;;36.20;31.91
11830;BME280;5972;42.134;24.718;2022-07-25T11:48:31;99206.91;;;36.16;32.80
11830;BME280;5972;42.134;24.718;2022-07-25T11:51:11;99200.94;;;35.96;32.48
11830;BME280;5972;42.134;24.718;2022-07-25T11:53:42;99206.13;;;35.86;32.55
11830;BME280;5972;42.134;24.718;2022-07-25T11:56:14;99199.84;;;35.74;33.22
11830;BME280;5972;42.134;24.718;2022-07-25T11:58:41;99198.63;;;35.64;33.33
11830;BME280;5972;42.134;24.718;2022-07-25T12:01:14;99204.47;;;35.72;33.59
11830;BME280;5972;42.134;24.718;2022-07-25T12:03:41;99193.59;;;35.52;33.81
11830;BME280;5972;42.134;24.718;2022-07-25T12:06:10;99192.84;;;35.45;33.30
11830;BME280;5972;42.134;24.718;2022-07-25T12:08:39;99186.31;;;35.32;33.11
11830;BME280;5972;42.134;24.718;2022-07-25T12:11:17;99184.53;;;35.29;33.63
11830;BME280;5972;42.134;24.718;2022-07-25T12:13:45;99190.66;;;35.33;33.67
11830;BME280;5972;42.134;24.718;2022-07-25T12:16:14;99190.84;;;35.40;33.22
11830;BME280;5972;42.134;24.718;2022-07-25T12:18:41;99184.84;;;35.20;33.54
11830;BME280;5972;42.134;24.718;2022-07-25T12:21:08;99199.34;;;35.35;33.32
11830;BME280;5972;42.134;24.718;2022-07-25T12:23:35;99186.28;;;35.37;33.12
11830;BME280;5972;42.134;24.718;2022-07-25T12:26:03;99183.22;;;35.35;33.74
11830;BME280;5972;42.134;24.718;2022-07-25T12:28:30;99173.84;;;35.22;33.41
11830;BME280;5972;42.134;24.718;2022-07-25T12:30:57;99172.81;;;35.25;32.91
11830;BME280;5972;42.134;24.718;2022-07-25T12:33:25;99174.72;;;35.41;33.68
11830;BME280;5972;42.134;24.718;2022-07-25T12:35:52;99172.97;;;35.38;33.49
11830;BME280;5972;42.134;24.718;2022-07-25T12:38:19;99176.09;;;35.29;34.04
11830;BME280;5972;42.134;24.718;2022-07-25T12:40:46;99169.47;;;35.26;33.35
11830;BME280;5972;42.134;24.718;2022-07-25T12:43:13;99175.91;;;35.16;32.98
11830;BME280;5972;42.134;24.718;2022-07-25T12:45:40;99172.38;;;35.10;33.04
11830;BME280;5972;42.134;24.718;2022-07-25T12:48:08;99172.28;;;35.26;34.00
11830;BME280;5972;42.134;24.718;2022-07-25T12:50:36;99164.41;;;35.14;33.52
11830;BME280;5972;42.134;24.718;2022-07-25T12:53:03;99166.66;;;35.26;33.67
11830;BME280;5972;42.134;24.718;2022-07-25T12:55:30;99165.16;;;35.20;33.46
11830;BME280;5972;42.134;24.718;2022-07-25T12:57:57;99159.47;;;35.31;34.06
11830;BME280;5972;42.134;24.718;2022-07-25T13:00:24;99159.19;;;35.34;34.02
11830;BME280;5972;42.134;24.718;2022-07-25T13:02:52;99158.41;;;35.34;33.76
11830;BME280;5972;42.134;24.718;2022-07-25T13:05:21;99156.75;;;35.14;34.09